sensor_id;sensor_type;location;lat;lon;timestamp;pressure;altitude;pressure_sealevel;temperature;humidity
57102;BME280;42982;54.558;18.508;2024-03-23T19:22:34;99408.50;;;21.42;nan
57102;BME280;42982;54.558;18.508;2024-03-23T19:23:55;99403.06;;;21.46;nan
57102;BME280;42982;54.558;18.508;2024-03-23T19:25:17;99401.53;;;21.48;nan
57102;BME280;42982;54.558;18.508;2024-03-23T19:26:47;99404.31;;;21.56;nan
57102;BME280;42982;54.558;18.508;2024-03-23T19:28:10;99394.94;;;21.57;nan
57102;BME280;42982;54.558;18.508;2024-03-23T19:29:37;99396.16;;;21.63;nan
57102;BME280;42982;54.558;18.508;2024-03-23T19:31:07;99394.22;;;21.67;nan
57102;BME280;42982;54.558;18.508;2024-03-23T19:32:30;99398.53;;;21.68;nan
57102;BME280;42982;54.558;18.508;2024-03-23T19:33:51;99404.03;;;21.75;nan
57102;BME280;42982;54.558;18.508;2024-03-23T19:35:11;99401.72;;;21.77;nan
57102;BME280;42982;54.558;18.508;2024-03-23T19:36:39;99399.38;;;21.79;nan
57102;BME280;42982;54.558;18.508;2024-03-23T19:38:04;99397.78;;;21.78;nan
57102;BME280;42982;54.558;18.508;2024-03-23T19:39:30;99406.00;;;21.78;nan
57102;BME280;42982;54.558;18.508;2024-03-23T19:40:57;99416.59;;;21.80;nan
57102;BME280;42982;54.558;18.508;2024-03-23T19:42:36;99418.16;;;21.81;nan
57102;BME280;42982;54.558;18.508;2024-03-23T19:44:01;99433.44;;;21.85;nan
57102;BME280;42982;54.558;18.508;2024-03-23T19:45:22;99438.13;;;21.88;nan
57102;BME280;42982;54.558;18.508;2024-03-23T19:46:44;99447.94;;;21.93;nan
57102;BME280;42982;54.558;18.508;2024-03-23T19:48:06;99445.22;;;21.96;nan
57102;BME280;42982;54.558;18.508;2024-03-23T19:49:31;99449.91;;;21.99;nan
57102;BME280;42982;54.558;18.508;2024-03-23T19:51:00;99451.88;;;22.03;nan
57102;BME280;42982;54.558;18.508;2024-03-23T19:52:24;99448.38;;;22.06;nan
57102;BME280;42982;54.558;18.508;2024-03-23T19:53:50;99444.09;;;22.08;nan
57102;BME280;42982;54.558;18.508;2024-03-23T19:55:13;99453.13;;;22.12;nan
57102;BME280;42982;54.558;18.508;2024-03-23T19:56:35;99442.56;;;22.14;nan
57102;BME280;42982;54.558;18.508;2024-03-23T19:57:58;99448.84;;;22.15;nan
57102;BME280;42982;54.558;18.508;2024-03-23T19:59:20;99447.31;;;22.21;nan
57102;BME280;42982;54.558;18.508;2024-03-23T20:00:50;99446.56;;;22.24;nan
57102;BME280;42982;54.558;18.508;2024-03-23T20:02:14;99445.00;;;22.27;nan
57102;BME280;42982;54.558;18.508;2024-03-23T20:03:48;99443.47;;;22.29;nan
57102;BME280;42982;54.558;18.508;2024-03-23T20:05:09;99448.19;;;22.32;nan
57102;BME280;42982;54.558;18.508;2024-03-23T20:06:34;99445.03;;;22.34;nan
57102;BME280;42982;54.558;18.508;2024-03-23T20:07:55;99451.69;;;22.36;nan
57102;BME280;42982;54.558;18.508;2024-03-23T20:09:19;99457.59;;;22.38;nan
57102;BME280;42982;54.558;18.508;2024-03-23T20:10:46;99463.44;;;22.37;nan
57102;BME280;42982;54.558;18.508;2024-03-23T20:12:11;99470.50;;;22.41;nan
57102;BME280;42982;54.558;18.508;2024-03-23T20:13:37;99470.91;;;22.43;nan
57102;BME280;42982;54.558;18.508;2024-03-23T20:14:57;99462.31;;;22.45;nan
57102;BME280;42982;54.558;18.508;2024-03-23T20:16:22;99465.44;;;22.47;nan
57102;BME280;42982;54.558;18.508;2024-03-23T20:17:42;99477.16;;;22.48;nan
57102;BME280;42982;54.558;18.508;2024-03-23T20:19:06;99476.00;;;22.49;nan
57102;BME280;42982;54.558;18.508;2024-03-23T20:20:28;99474.06;;;22.49;nan
57102;BME280;42982;54.558;18.508;2024-03-23T20:21:54;99473.28;;;22.52;nan
57102;BME280;42982;54.558;18.508;2024-03-23T20:23:16;99469.38;;;22.53;nan
57102;BME280;42982;54.558;18.508;2024-03-23T20:24:41;99476.44;;;22.54;nan
57102;BME280;42982;54.558;18.508;2024-03-23T20:26:05;99469.00;;;22.55;nan
57102;BME280;42982;54.558;18.508;2024-03-23T20:27:28;99470.56;;;22.56;nan
57102;BME280;42982;54.558;18.508;2024-03-23T20:28:52;99462.34;;;22.56;nan
57102;BME280;42982;54.558;18.508;2024-03-23T20:30:18;99465.84;;;22.56;nan
57102;BME280;42982;54.558;18.508;2024-03-23T20:31:42;99464.72;;;22.57;nan
57102;BME280;42982;54.558;18.508;2024-03-23T20:33:05;99469.78;;;22.59;nan
57102;BME280;42982;54.558;18.508;2024-03-23T20:34:36;99457.28;;;22.58;nan
57102;BME280;42982;54.558;18.508;2024-03-23T20:36:07;99465.09;;;22.59;nan
57102;BME280;42982;54.558;18.508;2024-03-23T20:37:33;99460.38;;;22.60;nan
57102;BME280;42982;54.558;18.508;2024-03-23T20:38:56;99456.50;;;22.61;nan
57102;BME280;42982;54.558;18.508;2024-03-23T20:40:17;99450.25;;;22.60;nan
57102;BME280;42982;54.558;18.508;2024-03-23T20:41:38;99446.69;;;22.60;nan
57102;BME280;42982;54.558;18.508;2024-03-23T20:43:08;99444.34;;;22.58;nan
57102;BME280;42982;54.558;18.508;2024-03-23T20:44:31;99440.84;;;22.58;nan
57102;BME280;42982;54.558;18.508;2024-03-23T20:45:57;99439.66;;;22.62;nan
57102;BME280;42982;54.558;18.508;2024-03-23T20:47:29;99443.56;;;22.61;38.89
57102;BME280;42982;54.558;18.508;2024-03-23T20:48:52;99434.19;;;22.62;38.86
57102;BME280;42982;54.558;18.508;2024-03-23T20:50:14;99443.19;;;22.63;38.98
57102;BME280;42982;54.558;18.508;2024-03-23T20:51:40;99445.13;;;22.62;39.06
57102;BME280;42982;54.558;18.508;2024-03-23T20:53:06;99449.44;;;22.63;38.78
57102;BME280;42982;54.558;18.508;2024-03-23T20:54:27;99438.47;;;22.63;38.81
57102;BME280;42982;54.558;18.508;2024-03-23T20:56:40;99434.97;;;22.63;39.17
57102;BME280;42982;54.558;18.508;2024-03-23T20:58:01;99436.53;;;22.64;38.97
57102;BME280;42982;54.558;18.508;2024-03-23T20:59:24;99428.31;;;22.64;38.57
57102;BME280;42982;54.558;18.508;2024-03-23T21:00:45;99436.53;;;22.64;39.03
57102;BME280;42982;54.558;18.508;2024-03-23T21:02:08;99434.97;;;22.63;39.02
57102;BME280;42982;54.558;18.508;2024-03-23T21:03:34;99438.09;;;22.65;39.00
57102;BME280;42982;54.558;18.508;2024-03-23T21:04:57;99435.75;;;22.63;38.84
57102;BME280;42982;54.558;18.508;2024-03-23T21:06:21;99425.59;;;22.64;38.97
57102;BME280;42982;54.558;18.508;2024-03-23T21:07:41;99417.38;;;22.64;38.53
57102;BME280;42982;54.558;18.508;2024-03-23T21:09:02;99428.31;;;22.64;38.69
57102;BME280;42982;54.558;18.508;2024-03-23T21:10:30;99416.19;;;22.65;38.89
57102;BME280;42982;54.558;18.508;2024-03-23T21:11:51;99420.09;;;22.64;38.31
57102;BME280;42982;54.558;18.508;2024-03-23T21:13:11;99420.09;;;22.64;38.62
57102;BME280;42982;54.558;18.508;2024-03-23T21:14:37;99416.19;;;22.65;38.34
57102;BME280;42982;54.558;18.508;2024-03-23T21:16:00;99417.38;;;22.64;38.26
57102;BME280;42982;54.558;18.508;2024-03-23T21:17:27;99411.47;;;22.62;37.99
57102;BME280;42982;54.558;18.508;2024-03-23T21:18:50;99407.56;;;22.63;37.94
57102;BME280;42982;54.558;18.508;2024-03-23T21:20:13;99406.78;;;22.62;38.08
57102;BME280;42982;54.558;18.508;2024-03-23T21:21:36;99411.88;;;22.64;38.23
57102;BME280;42982;54.558;18.508;2024-03-23T21:23:01;99402.84;;;22.63;38.33
57102;BME280;42982;54.558;18.508;2024-03-23T21:24:25;99405.22;;;22.65;38.30
57102;BME280;42982;54.558;18.508;2024-03-23T21:25:57;99405.22;;;22.65;38.07
57102;BME280;42982;54.558;18.508;2024-03-23T21:27:24;99402.91;;;22.67;38.47
57102;BME280;42982;54.558;18.508;2024-03-23T21:28:54;99404.44;;;22.68;38.40
57102;BME280;42982;54.558;18.508;2024-03-23T21:30:17;99399.75;;;22.68;38.72
57102;BME280;42982;54.558;18.508;2024-03-23T21:31:43;99400.53;;;22.69;38.68
57102;BME280;42982;54.558;18.508;2024-03-23T21:33:04;99398.19;;;22.71;38.88
57102;BME280;42982;54.558;18.508;2024-03-23T21:34:25;99398.19;;;22.71;38.83
57102;BME280;42982;54.558;18.508;2024-03-23T21:35:58;99399.75;;;22.72;38.45
57102;BME280;42982;54.558;18.508;2024-03-23T21:37:24;99391.16;;;22.70;38.75
57102;BME280;42982;54.558;18.508;2024-03-23T21:38:49;99390.38;;;22.73;39.10
57102;BME280;42982;54.558;18.508;2024-03-23T21:40:12;99386.47;;;22.74;38.73
57102;BME280;42982;54.558;18.508;2024-03-23T21:41:32;99378.25;;;22.74;39.20
57102;BME280;42982;54.558;18.508;2024-03-23T21:42:59;99384.13;;;22.76;39.25
57102;BME280;42982;54.558;18.508;2024-03-23T21:44:24;99379.44;;;22.77;39.23
57102;BME280;42982;54.558;18.508;2024-03-23T21:46:12;99394.69;;;22.78;39.51
57102;BME280;42982;54.558;18.508;2024-03-23T21:47:35;99382.53;;;22.79;39.18
57102;BME280;42982;54.558;18.508;2024-03-23T21:48:56;99379.81;;;22.79;39.63
57102;BME280;42982;54.558;18.508;2024-03-23T21:50:19;99388.84;;;22.79;39.57
57102;BME280;42982;54.558;18.508;2024-03-23T21:51:45;99372.34;;;22.72;39.59
57102;BME280;42982;54.558;18.508;2024-03-23T21:53:13;99384.91;;;22.80;39.30
57102;BME280;42982;54.558;18.508;2024-03-23T21:54:33;99387.25;;;22.82;39.41
57102;BME280;42982;54.558;18.508;2024-03-23T21:55:56;99387.25;;;22.82;39.55
57102;BME280;42982;54.558;18.508;2024-03-23T21:57:26;99386.88;;;22.83;39.75
57102;BME280;42982;54.558;18.508;2024-03-23T21:58:57;99392.34;;;22.83;39.72
57102;BME280;42982;54.558;18.508;2024-03-23T22:00:22;99386.47;;;22.85;39.61
57102;BME280;42982;54.558;18.508;2024-03-23T22:01:50;99388.06;;;22.86;40.00
57102;BME280;42982;54.558;18.508;2024-03-23T22:03:17;99386.88;;;22.83;39.64
57102;BME280;42982;54.558;18.508;2024-03-23T22:04:37;99392.72;;;22.85;40.03
57102;BME280;42982;54.558;18.508;2024-03-23T22:06:06;99394.31;;;22.86;39.77
57102;BME280;42982;54.558;18.508;2024-03-23T22:07:32;99390.38;;;22.87;39.75
57102;BME280;42982;54.558;18.508;2024-03-23T22:09:00;99398.59;;;22.87;39.77
57102;BME280;42982;54.558;18.508;2024-03-23T22:10:26;99392.75;;;22.89;39.87
57102;BME280;42982;54.558;18.508;2024-03-23T22:11:49;99391.94;;;22.88;39.75
57102;BME280;42982;54.558;18.508;2024-03-23T22:13:15;99386.47;;;22.88;39.93
57102;BME280;42982;54.558;18.508;2024-03-23T22:14:39;99396.28;;;22.89;40.21
57102;BME280;42982;54.558;18.508;2024-03-23T22:16:06;99389.22;;;22.88;39.99
57102;BME280;42982;54.558;18.508;2024-03-23T22:17:32;99393.53;;;22.89;39.98
57102;BME280;42982;54.558;18.508;2024-03-23T22:18:56;99386.47;;;22.88;39.99
57102;BME280;42982;54.558;18.508;2024-03-23T22:20:17;99383.34;;;22.86;39.65
57102;BME280;42982;54.558;18.508;2024-03-23T22:21:43;99392.75;;;22.89;39.82
57102;BME280;42982;54.558;18.508;2024-03-23T22:23:06;99392.34;;;22.90;39.47
57102;BME280;42982;54.558;18.508;2024-03-23T22:24:26;99397.84;;;22.90;39.79
57102;BME280;42982;54.558;18.508;2024-03-23T22:25:52;99390.78;;;22.89;39.64
57102;BME280;42982;54.558;18.508;2024-03-23T22:27:15;99388.44;;;22.91;39.77
57102;BME280;42982;54.558;18.508;2024-03-23T22:28:45;99392.34;;;22.90;39.73
57102;BME280;42982;54.558;18.508;2024-03-23T22:30:16;99394.72;;;22.92;39.96
57102;BME280;42982;54.558;18.508;2024-03-23T22:31:35;99394.72;;;22.92;39.95
57102;BME280;42982;54.558;18.508;2024-03-23T22:32:56;99392.75;;;22.93;39.94
57102;BME280;42982;54.558;18.508;2024-03-23T22:34:21;99390.00;;;22.93;39.77
57102;BME280;42982;54.558;18.508;2024-03-23T22:35:51;99396.66;;;22.91;40.25
57102;BME280;42982;54.558;18.508;2024-03-23T22:37:23;99395.13;;;22.94;39.83
57102;BME280;42982;54.558;18.508;2024-03-23T22:38:47;99395.13;;;22.94;39.91
57102;BME280;42982;54.558;18.508;2024-03-23T22:40:12;99399.81;;;22.94;39.84
57102;BME280;42982;54.558;18.508;2024-03-23T22:41:32;99393.16;;;22.95;40.23
57102;BME280;42982;54.558;18.508;2024-03-23T22:42:55;99398.63;;;22.95;40.33
57102;BME280;42982;54.558;18.508;2024-03-23T22:44:19;99393.97;;;22.95;39.95
57102;BME280;42982;54.558;18.508;2024-03-23T22:45:42;99393.16;;;22.95;40.51
57102;BME280;42982;54.558;18.508;2024-03-23T22:47:12;99395.91;;;22.95;40.04
57102;BME280;42982;54.558;18.508;2024-03-23T22:48:37;99386.53;;;22.96;40.25
57102;BME280;42982;54.558;18.508;2024-03-23T22:50:02;99387.69;;;22.95;40.24
57102;BME280;42982;54.558;18.508;2024-03-23T22:51:30;99388.09;;;22.97;40.24
57102;BME280;42982;54.558;18.508;2024-03-23T22:52:56;99381.81;;;22.96;40.22
57102;BME280;42982;54.558;18.508;2024-03-23T22:54:22;99389.63;;;22.98;40.50
57102;BME280;42982;54.558;18.508;2024-03-23T22:55:49;99385.75;;;22.95;40.63
57102;BME280;42982;54.558;18.508;2024-03-23T22:57:16;99390.81;;;22.97;40.54
57102;BME280;42982;54.558;18.508;2024-03-23T22:58:39;99395.53;;;23.00;40.76
57102;BME280;42982;54.558;18.508;2024-03-23T23:00:04;99393.56;;;23.00;40.67
57102;BME280;42982;54.558;18.508;2024-03-23T23:01:30;99397.06;;;23.01;40.43
57102;BME280;42982;54.558;18.508;2024-03-23T23:02:50;99392.78;;;23.00;40.70
57102;BME280;42982;54.558;18.508;2024-03-23T23:04:17;99403.75;;;23.00;40.67
57102;BME280;42982;54.558;18.508;2024-03-23T23:05:57;99380.19;;;22.91;40.38
57102;BME280;42982;54.558;18.508;2024-03-23T23:07:23;99388.84;;;23.01;40.54
57102;BME280;42982;54.558;18.508;2024-03-23T23:08:49;99391.22;;;22.99;40.85
57102;BME280;42982;54.558;18.508;2024-03-23T23:10:17;99398.25;;;23.00;40.58
57102;BME280;42982;54.558;18.508;2024-03-23T23:11:37;99388.84;;;23.01;40.92
57102;BME280;42982;54.558;18.508;2024-03-23T23:12:58;99391.59;;;23.01;40.77
57102;BME280;42982;54.558;18.508;2024-03-23T23:14:21;99401.41;;;23.02;40.91
57102;BME280;42982;54.558;18.508;2024-03-23T23:15:47;99389.63;;;23.01;40.99
57102;BME280;42982;54.558;18.508;2024-03-23T23:17:09;99391.59;;;23.01;40.84
57102;BME280;42982;54.558;18.508;2024-03-23T23:18:32;99390.44;;;23.02;40.79
57102;BME280;42982;54.558;18.508;2024-03-23T23:19:57;99389.25;;;23.03;40.93
57102;BME280;42982;54.558;18.508;2024-03-23T23:21:17;99386.13;;;23.01;40.85
57102;BME280;42982;54.558;18.508;2024-03-23T23:22:45;99392.78;;;23.00;40.50
57102;BME280;42982;54.558;18.508;2024-03-23T23:24:08;99387.69;;;22.95;39.83
57102;BME280;42982;54.558;18.508;2024-03-23T23:25:33;99387.66;;;22.87;39.44
57102;BME280;42982;54.558;18.508;2024-03-23T23:27:01;99390.75;;;22.82;39.49
57102;BME280;42982;54.558;18.508;2024-03-23T23:28:22;99392.34;;;22.76;39.44
57102;BME280;42982;54.558;18.508;2024-03-23T23:29:45;99388.41;;;22.70;39.36
57102;BME280;42982;54.558;18.508;2024-03-23T23:31:08;99386.81;;;22.62;39.33
57102;BME280;42982;54.558;18.508;2024-03-23T23:32:29;99391.91;;;22.56;38.96
57102;BME280;42982;54.558;18.508;2024-03-23T23:34:00;99386.78;;;22.48;39.27
57102;BME280;42982;54.558;18.508;2024-03-23T23:35:32;99391.88;;;22.42;38.88
57102;BME280;42982;54.558;18.508;2024-03-23T23:36:51;99393.41;;;22.36;38.66
57102;BME280;42982;54.558;18.508;2024-03-23T23:38:15;99394.97;;;22.30;38.78
57102;BME280;42982;54.558;18.508;2024-03-23T23:39:38;99389.84;;;22.25;38.69
57102;BME280;42982;54.558;18.508;2024-03-23T23:41:04;99390.59;;;22.18;39.16
57102;BME280;42982;54.558;18.508;2024-03-23T23:42:31;99387.03;;;22.10;38.92
57102;BME280;42982;54.558;18.508;2024-03-23T23:43:55;99392.47;;;22.07;39.12
57102;BME280;42982;54.558;18.508;2024-03-23T23:45:20;99384.63;;;22.02;38.86
57102;BME280;42982;54.558;18.508;2024-03-23T23:46:40;99391.66;;;21.95;39.11
57102;BME280;42982;54.558;18.508;2024-03-23T23:48:03;99393.59;;;21.91;39.07
57102;BME280;42982;54.558;18.508;2024-03-23T23:49:28;99389.25;;;21.87;38.87
57102;BME280;42982;54.558;18.508;2024-03-23T23:50:49;99384.94;;;21.82;38.96
57102;BME280;42982;54.558;18.508;2024-03-23T23:52:18;99381.38;;;21.78;38.83
57102;BME280;42982;54.558;18.508;2024-03-23T23:53:41;99384.50;;;21.73;38.85
57102;BME280;42982;54.558;18.508;2024-03-23T23:55:04;99383.66;;;21.69;38.81
57102;BME280;42982;54.558;18.508;2024-03-23T23:56:30;99387.19;;;21.66;38.92
57102;BME280;42982;54.558;18.508;2024-03-23T23:57:55;99387.53;;;21.61;38.79
57102;BME280;42982;54.558;18.508;2024-03-23T23:59:18;99380.88;;;21.58;38.97
